Time;durP1;ratioP1;P1;durP2;ratioP2;P2;SDS_P1;SDS_P2;PMS_P1;PMS_P2;Temp;Humidity;BMP_temperature;BMP_pressure;BME280_temperature;BME280_humidity;BME280_pressure;Samples;Min_cycle;Max_cycle;Signal;HPM_P1;HPM_P2
2021/06/11 00:02:20;;;;;;;;;;;;;;;;;;5114403;28;19903;-67
2021/06/11 00:04:46;;;;;;;;;;;;;;;;;;5115319;28;19982;-68
2021/06/11 00:07:11;;;;;;;;;;;;;;;;;;5115493;28;20051;-69
2021/06/11 00:09:37;;;;;;;;;;;;;;;;;;5121259;28;19939;-68
2021/06/11 00:12:03;;;;;;;;;;;;;;;;;;5121241;28;19900;-69
2021/06/11 00:14:29;;;;;;;;;;;;;;;;;;5121413;28;20362;-69
2021/06/11 00:16:55;;;;;;;;;;;;;;;;;;5102858;28;19973;-67
2021/06/11 00:19:21;;;;;;;;;;;;;;;;;;5121713;28;19899;-68
2021/06/11 00:21:47;;;;;;;;;;;;;;;;;;5121729;28;19904;-67
2021/06/11 00:24:13;;;;;;;;;;;;;;;;;;5121380;28;20259;-68
2021/06/11 00:26:39;;;;;;;;;;;;;;;;;;5121068;28;19945;-68
2021/06/11 00:29:05;;;;;;;;;;;;;;;;;;5121082;28;20415;-67
2021/06/11 00:31:31;;;;;;;;;;;;;;;;;;5121015;28;19899;-66
2021/06/11 00:33:57;;;;;;;;;;;;;;;;;;5103172;28;19938;-68
2021/06/11 00:36:23;;;;;;;;;;;;;;;;;;5121820;28;19907;-68
2021/06/11 00:38:49;;;;;;;;;;;;;;;;;;5120957;28;19907;-69
2021/06/11 00:41:15;;;;;;;;;;;;;;;;;;5121847;28;19975;-68
2021/06/11 00:43:41;;;;;;;;;;;;;;;;;;5120934;28;20340;-68
2021/06/11 00:46:07;;;;;;;;;;;;;;;;;;5120928;28;19938;-69
2021/06/11 00:48:33;;;;;;;;;;;;;;;;;;5120863;28;19953;-69
2021/06/11 00:50:59;;;;;;;;;;;;;;;;;;5121167;28;19900;-68
2021/06/11 00:53:25;;;;;;;;;;;;;;;;;;5120552;28;19960;-69
2021/06/11 00:55:51;;;;;;;;;;;;;;;;;;5102669;28;19908;-68
2021/06/11 00:58:18;;;;;;;;;;;;;;;;;;5120484;28;19952;-68
2021/06/11 01:00:44;;;;;;;;;;;;;;;;;;5120687;28;20353;-69
2021/06/11 01:03:11;;;;;;;;;;;;;;;;;;5121595;28;19907;-69
2021/06/11 01:05:37;;;;;;;;;;;;;;;;;;5120704;28;20072;-68
2021/06/11 01:08:03;;;;;;;;;;;;;;;;;;5121398;28;20247;-69
2021/06/11 01:10:29;;;;;;;;;;;;;;;;;;5120963;28;19904;-68
2021/06/11 01:12:55;;;;;;;;;;;;;;;;;;5120646;28;20397;-70
2021/06/11 01:15:22;;;;;;;;;;;;;;;;;;5121125;28;19912;-69
2021/06/11 01:17:48;;;;;;;;;;;;;;;;;;5120933;28;19911;-69
2021/06/11 01:20:14;;;;;;;;;;;;;;;;;;5117575;28;20002;-68
2021/06/11 01:22:40;;;;;;;;;;;;;;;;;;5117666;28;19906;-69
2021/06/11 01:25:06;;;;;;;;;;;;;;;;;;5117618;28;20240;-69
2021/06/11 01:27:32;;;;;;;;;;;;;;;;;;5117413;28;19945;-69
2021/06/11 01:30:04;;;;;;;;;;;;;;;;;;5117249;28;19907;-69
2021/06/11 01:32:31;;;;;;;;;;;;;;;;;;5117538;28;19899;-68
2021/06/11 01:34:57;;;;;;;;;;;;;;;;;;5098813;28;19907;-69
2021/06/11 01:37:23;;;;;;;;;;;;;;;;;;5117395;28;19908;-68
2021/06/11 01:39:48;;;;;;;;;;;;;;;;;;5117354;28;20006;-68
2021/06/11 01:42:14;;;;;;;;;;;;;;;;;;5098715;28;20006;-69
2021/06/11 01:44:40;;;;;;;;;;;;;;;;;;5117095;28;19900;-69
2021/06/11 01:47:06;;;;;;;;;;;;;;;;;;5116657;28;19990;-69
2021/06/11 01:49:32;;;;;;;;;;;;;;;;;;5117149;28;19907;-70
2021/06/11 01:51:58;;;;;;;;;;;;;;;;;;5117174;28;20343;-69
2021/06/11 01:54:24;;;;;;;;;;;;;;;;;;5116755;28;19899;-69
2021/06/11 01:56:50;;;;;;;;;;;;;;;;;;5116618;28;19953;-68
2021/06/11 01:59:16;;;;;;;;;;;;;;;;;;5116980;28;19994;-69
2021/06/11 02:01:42;;;;;;;;;;;;;;;;;;5116908;28;20302;-67
2021/06/11 02:04:08;;;;;;;;;;;;;;;;;;5116589;28;20003;-67
2021/06/11 02:06:34;;;;;;;;;;;;;;;;;;5117137;28;19945;-68
2021/06/11 02:09:00;;;;;;;;;;;;;;;;;;5098188;28;20367;-67
2021/06/11 02:11:26;;;;;;;;;;;;;;;;;;5117091;28;19900;-69
2021/06/11 02:13:53;;;;;;;;;;;;;;;;;;5116663;28;20275;-68
2021/06/11 02:16:19;;;;;;;;;;;;;;;;;;5116107;28;19907;-69
2021/06/11 02:18:44;;;;;;;;;;;;;;;;;;5116874;28;20240;-68
2021/06/11 02:21:10;;;;;;;;;;;;;;;;;;5116991;28;19900;-68
2021/06/11 02:23:37;;;;;;;;;;;;;;;;;;5116164;28;19911;-69
2021/06/11 02:26:03;;;;;;;;;;;;;;;;;;5116442;28;19904;-68
2021/06/11 02:28:28;;;;;;;;;;;;;;;;;;5116380;28;19900;-68
2021/06/11 02:30:56;;;;;;;;;;;;;;;;;;5115556;28;20380;-69
2021/06/11 02:33:22;;;;;;;;;;;;;;;;;;5097748;28;19935;-69
2021/06/11 02:35:48;;;;;;;;;;;;;;;;;;5115868;28;19981;-69
2021/06/11 02:38:14;;;;;;;;;;;;;;;;;;5115907;28;19938;-68
2021/06/11 02:40:40;;;;;;;;;;;;;;;;;;5116110;28;19903;-68
2021/06/11 02:43:06;;;;;;;;;;;;;;;;;;5115795;28;19935;-68
2021/06/11 02:45:32;;;;;;;;;;;;;;;;;;5115803;28;19949;-67
2021/06/11 02:47:58;;;;;;;;;;;;;;;;;;5115986;28;19926;-68
2021/06/11 02:50:24;;;;;;;;;;;;;;;;;;5097796;28;20001;-68
2021/06/11 02:52:50;;;;;;;;;;;;;;;;;;5115962;28;19907;-67
2021/06/11 02:55:16;;;;;;;;;;;;;;;;;;5115832;28;20368;-68
2021/06/11 02:57:42;;;;;;;;;;;;;;;;;;5115801;28;19899;-68
2021/06/11 03:00:08;;;;;;;;;;;;;;;;;;5115937;28;19916;-68
2021/06/11 03:02:34;;;;;;;;;;;;;;;;;;5098354;28;19900;-69
2021/06/11 03:05:00;;;;;;;;;;;;;;;;;;5115353;28;20399;-67
2021/06/11 03:07:28;;;;;;;;;;;;;;;;;;5115600;28;19900;-67
2021/06/11 03:09:54;;;;;;;;;;;;;;;;;;5115601;28;19900;-68
2021/06/11 03:12:20;;;;;;;;;;;;;;;;;;5115272;28;19899;-66
2021/06/11 03:14:46;;;;;;;;;;;;;;;;;;5115101;28;19960;-71
2021/06/11 03:17:12;;;;;;;;;;;;;;;;;;5115524;28;19960;-69
2021/06/11 03:19:38;;;;;;;;;;;;;;;;;;5114586;28;19904;-68
2021/06/11 03:22:04;;;;;;;;;;;;;;;;;;5115403;28;19900;-68
2021/06/11 03:24:30;;;;;;;;;;;;;;;;;;5115026;28;19900;-68
2021/06/11 03:26:56;;;;;;;;;;;;;;;;;;5114544;28;19906;-67
2021/06/11 03:29:22;;;;;;;;;;;;;;;;;;5115146;28;19944;-67
2021/06/11 03:31:48;;;;;;;;;;;;;;;;;;5114596;28;20002;-69
2021/06/11 03:34:14;;;;;;;;;;;;;;;;;;5114974;28;19906;-68
2021/06/11 03:36:41;;;;;;;;;;;;;;;;;;5115664;28;20036;-67
2021/06/11 03:39:07;;;;;;;;;;;;;;;;;;5113973;28;19909;-67
2021/06/11 03:41:33;;;;;;;;;;;;;;;;;;5115060;28;20010;-67
2021/06/11 03:43:58;;;;;;;;;;;;;;;;;;5113119;28;20359;-66
2021/06/11 03:46:24;;;;;;;;;;;;;;;;;;5114226;28;19907;-67
2021/06/11 03:48:50;;;;;;;;;;;;;;;;;;5114505;28;19900;-67
2021/06/11 03:51:16;;;;;;;;;;;;;;;;;;5115299;28;19900;-68
2021/06/11 03:53:42;;;;;;;;;;;;;;;;;;5114571;28;20336;-68
2021/06/11 03:56:08;;;;;;;;;;;;;;;;;;5114566;28;19917;-67
2021/06/11 03:58:34;;;;;;;;;;;;;;;;;;5114564;28;19907;-67
2021/06/11 04:01:00;;;;;;;;;;;;;;;;;;5114524;28;19935;-67
2021/06/11 04:03:26;;;;;;;;;;;;;;;;;;5096420;28;19944;-67
2021/06/11 04:05:52;;;;;;;;;;;;;;;;;;5114474;28;19900;-68
2021/06/11 04:08:18;;;;;;;;;;;;;;;;;;5114219;28;19904;-67
2021/06/11 04:10:44;;;;;;;;;;;;;;;;;;5114430;28;20003;-68
2021/06/11 04:13:10;;;;;;;;;;;;;;;;;;5114735;28;20255;-68
2021/06/11 04:15:36;;;;;;;;;;;;;;;;;;5114007;28;19943;-66
2021/06/11 04:18:02;;;;;;;;;;;;;;;;;;5114944;28;19907;-68
2021/06/11 04:20:28;;;;;;;;;;;;;;;;;;5114619;28;19904;-67
2021/06/11 04:22:54;;;;;;;;;;;;;;;;;;5114358;28;20367;-67
2021/06/11 04:25:20;;;;;;;;;;;;;;;;;;5114272;28;19995;-65
2021/06/11 04:27:46;;;;;;;;;;;;;;;;;;5114548;28;20307;-68
2021/06/11 04:30:12;;;;;;;;;;;;;;;;;;5113973;28;19906;-68
2021/06/11 04:32:38;;;;;;;;;;;;;;;;;;5114903;28;19911;-67
2021/06/11 04:35:04;;;;;;;;;;;;;;;;;;5113932;28;19900;-68
2021/06/11 04:37:30;;;;;;;;;;;;;;;;;;5114933;28;20313;-67
2021/06/11 04:39:56;;;;;;;;;;;;;;;;;;5114130;28;19903;-68
2021/06/11 04:42:22;;;;;;;;;;;;;;;;;;5114133;28;19904;-67
2021/06/11 04:44:48;;;;;;;;;;;;;;;;;;5114860;28;20388;-67
2021/06/11 04:47:14;;;;;;;;;;;;;;;;;;5114120;28;19911;-68
2021/06/11 04:49:39;;;;;;;;;;;;;;;;;;5114030;28;19900;-67
2021/06/11 04:52:05;;;;;;;;;;;;;;;;;;5114325;28;20233;-68
2021/06/11 04:54:31;;;;;;;;;;;;;;;;;;5115047;28;19907;-68
2021/06/11 04:56:57;;;;;;;;;;;;;;;;;;5117859;28;19998;-68
2021/06/11 04:59:23;;;;;;;;;;;;;;;;;;5118149;28;20352;-68
2021/06/11 05:01:50;;;;;;;;;;;;;;;;;;5118497;28;20003;-67
2021/06/11 05:04:16;;;;;;;;;;;;;;;;;;5117513;28;19953;-68
2021/06/11 05:06:42;;;;;;;;;;;;;;;;;;5117744;28;20306;-68
2021/06/11 05:09:08;;;;;;;;;;;;;;;;;;5117942;28;19945;-66
2021/06/11 05:11:34;;;;;;;;;;;;;;;;;;5117327;28;19953;-68
2021/06/11 05:14:00;;;;;;;;;;;;;;;;;;5118411;28;20379;-67
2021/06/11 05:16:27;;;;;;;;;;;;;;;;;;5117766;28;19908;-68
2021/06/11 05:18:53;;;;;;;;;;;;;;;;;;5117813;28;20370;-68
2021/06/11 05:21:19;;;;;;;;;;;;;;;;;;5117442;28;19983;-67
2021/06/11 05:23:45;;;;;;;;;;;;;;;;;;5117705;28;20340;-67
2021/06/11 05:26:11;;;;;;;;;;;;;;;;;;5117680;28;19900;-67
2021/06/11 05:28:37;;;;;;;;;;;;;;;;;;5117623;28;20391;-69
2021/06/11 05:31:03;;;;;;;;;;;;;;;;;;5117482;28;19942;-72
2021/06/11 05:33:29;;;;;;;;;;;;;;;;;;5099196;28;20327;-70
2021/06/11 05:35:55;;;;;;;;;;;;;;;;;;5117384;28;20006;-69
2021/06/11 05:38:21;;;;;;;;;;;;;;;;;;5098779;28;19903;-69
2021/06/11 05:40:47;;;;;;;;;;;;;;;;;;5099006;28;19900;-70
2021/06/11 05:43:13;;;;;;;;;;;;;;;;;;5117324;28;19953;-77
2021/06/11 05:45:39;;;;;;;;;;;;;;;;;;5099286;28;19946;-71
2021/06/11 05:48:05;;;;;;;;;;;;;;;;;;5117044;28;19906;-72
2021/06/11 05:50:31;;;;;;;;;;;;;;;;;;5117468;28;20274;-73
2021/06/11 05:52:57;;;;;;;;;;;;;;;;;;5098481;28;19899;-72
2021/06/11 05:55:25;;;;;;;;;;;;;;;;;;5099216;28;19899;-70
2021/06/11 05:57:51;;;;;;;;;;;;;;;;;;5117285;28;19935;-70
2021/06/11 06:00:17;;;;;;;;;;;;;;;;;;5116278;28;20048;-70
2021/06/11 06:02:43;;;;;;;;;;;;;;;;;;5098580;28;19900;-70
2021/06/11 06:05:09;;;;;;;;;;;;;;;;;;5116296;28;19930;-70
2021/06/11 06:07:35;;;;;;;;;;;;;;;;;;5117161;28;19900;-70
2021/06/11 06:10:01;;;;;;;;;;;;;;;;;;5117380;28;19900;-68
2021/06/11 06:12:27;;;;;;;;;;;;;;;;;;5099243;28;19953;-70
2021/06/11 06:14:53;;;;;;;;;;;;;;;;;;5098000;28;19899;-70
2021/06/11 06:17:19;;;;;;;;;;;;;;;;;;5098259;28;19972;-70
2021/06/11 06:19:45;;;;;;;;;;;;;;;;;;5116873;28;19900;-70
2021/06/11 06:22:12;;;;;;;;;;;;;;;;;;5097887;28;20260;-69
2021/06/11 06:24:38;;;;;;;;;;;;;;;;;;5098106;28;19904;-70
2021/06/11 06:27:04;;;;;;;;;;;;;;;;;;5116075;28;19906;-70
2021/06/11 06:29:30;;;;;;;;;;;;;;;;;;5116023;28;19906;-70
2021/06/11 06:31:56;;;;;;;;;;;;;;;;;;5097933;28;19900;-70
2021/06/11 06:34:22;;;;;;;;;;;;;;;;;;5115969;28;19900;-70
2021/06/11 06:36:48;;;;;;;;;;;;;;;;;;5116442;28;19947;-69
2021/06/11 06:39:14;;;;;;;;;;;;;;;;;;5116213;28;19949;-68
2021/06/11 06:41:40;;;;;;;;;;;;;;;;;;5097633;28;19903;-70
2021/06/11 06:44:06;;;;;;;;;;;;;;;;;;5097695;28;19900;-70
2021/06/11 06:46:32;;;;;;;;;;;;;;;;;;5115750;28;19948;-70
2021/06/11 06:48:58;;;;;;;;;;;;;;;;;;5115581;28;19904;-70
2021/06/11 06:51:26;;;;;;;;;;;;;;;;;;5115678;28;20039;-70
2021/06/11 06:53:52;;;;;;;;;;;;;;;;;;5115885;28;19906;-70
2021/06/11 06:56:18;;;;;;;;;;;;;;;;;;5115522;28;19919;-70
2021/06/11 06:58:44;;;;;;;;;;;;;;;;;;5116120;28;19900;-70
2021/06/11 07:01:10;;;;;;;;;;;;;;;;;;5097078;28;19919;-69
2021/06/11 07:03:36;;;;;;;;;;;;;;;;;;5115144;28;19900;-70
2021/06/11 07:06:02;;;;;;;;;;;;;;;;;;5097434;28;19899;-71
2021/06/11 07:08:31;;;;;;;;;;;;;;;;;;5097339;28;19909;-71
2021/06/11 07:10:57;;;;;;;;;;;;;;;;;;5097039;28;19899;-71
2021/06/11 07:13:23;;;;;;;;;;;;;;;;;;5115830;28;20342;-73
2021/06/11 07:15:49;;;;;;;;;;;;;;;;;;5097085;28;19908;-70
2021/06/11 07:18:15;;;;;;;;;;;;;;;;;;5096268;28;19908;-70
2021/06/11 07:20:41;;;;;;;;;;;;;;;;;;5115406;28;19907;-70
2021/06/11 07:23:07;;;;;;;;;;;;;;;;;;5115444;28;19906;-71
2021/06/11 07:25:33;;;;;;;;;;;;;;;;;;5115335;28;19899;-70
2021/06/11 07:27:59;;;;;;;;;;;;;;;;;;5096995;28;20339;-72
2021/06/11 07:30:25;;;;;;;;;;;;;;;;;;5096932;28;19899;-70
2021/06/11 07:32:51;;;;;;;;;;;;;;;;;;5115163;28;19998;-69
2021/06/11 07:35:18;;;;;;;;;;;;;;;;;;5114081;28;19904;-69
2021/06/11 07:37:44;;;;;;;;;;;;;;;;;;5095387;28;20260;-69
2021/06/11 07:40:10;;;;;;;;;;;;;;;;;;5110979;28;19906;-70
2021/06/11 07:42:36;;;;;;;;;;;;;;;;;;5113714;28;19906;-70
2021/06/11 07:45:02;;;;;;;;;;;;;;;;;;5095458;28;20369;-70
2021/06/11 07:47:28;;;;;;;;;;;;;;;;;;5115027;28;19903;-67
2021/06/11 07:49:54;;;;;;;;;;;;;;;;;;5114410;28;19907;-70
2021/06/11 07:52:20;;;;;;;;;;;;;;;;;;5115225;28;19899;-70
2021/06/11 07:54:46;;;;;;;;;;;;;;;;;;5114902;28;19900;-71
2021/06/11 07:57:12;;;;;;;;;;;;;;;;;;5096468;28;19961;-71
2021/06/11 07:59:38;;;;;;;;;;;;;;;;;;5096380;28;19925;-71
2021/06/11 08:02:04;;;;;;;;;;;;;;;;;;5113974;28;19912;-72
2021/06/11 08:04:31;;;;;;;;;;;;;;;;;;5096528;28;20019;-71
2021/06/11 08:06:57;;;;;;;;;;;;;;;;;;5114876;28;19900;-71
2021/06/11 08:09:25;;;;;;;;;;;;;;;;;;5114462;28;19921;-72
2021/06/11 08:11:51;;;;;;;;;;;;;;;;;;5114387;28;19998;-73
2021/06/11 08:14:17;;;;;;;;;;;;;;;;;;5096425;28;19950;-71
2021/06/11 08:16:43;;;;;;;;;;;;;;;;;;5114085;28;19915;-73
2021/06/11 08:19:09;;;;;;;;;;;;;;;;;;5096128;28;19943;-71
2021/06/11 08:21:35;;;;;;;;;;;;;;;;;;5114890;28;19899;-71
2021/06/11 08:24:01;;;;;;;;;;;;;;;;;;5114338;28;19939;-71
2021/06/11 08:26:26;;;;;;;;;;;;;;;;;;5096282;28;19957;-72
2021/06/11 08:28:52;;;;;;;;;;;;;;;;;;5115756;28;20348;-72
2021/06/11 08:31:18;;;;;;;;;;;;;;;;;;5100064;28;19907;-72
2021/06/11 08:33:46;;;;;;;;;;;;;;;;;;5100257;28;19994;-71
2021/06/11 08:36:12;;;;;;;;;;;;;;;;;;5100206;28;19914;-71
2021/06/11 08:38:38;;;;;;;;;;;;;;;;;;5118311;28;19903;-72
2021/06/11 08:41:04;;;;;;;;;;;;;;;;;;5118526;28;20408;-72
2021/06/11 08:43:30;;;;;;;;;;;;;;;;;;5100119;28;19899;-72
2021/06/11 08:45:56;;;;;;;;;;;;;;;;;;5099824;28;20039;-72
2021/06/11 08:48:22;;;;;;;;;;;;;;;;;;5118583;28;19935;-70
2021/06/11 08:50:48;;;;;;;;;;;;;;;;;;5099782;28;20348;-73
2021/06/11 08:53:14;;;;;;;;;;;;;;;;;;5099973;28;19906;-72
2021/06/11 08:55:40;;;;;;;;;;;;;;;;;;5099970;28;19931;-73
2021/06/11 08:58:06;;;;;;;;;;;;;;;;;;5099540;28;19900;-71
2021/06/11 09:00:32;;;;;;;;;;;;;;;;;;5118136;28;19920;-71
2021/06/11 09:02:58;;;;;;;;;;;;;;;;;;5100517;28;19904;-73
2021/06/11 09:05:24;;;;;;;;;;;;;;;;;;5117442;28;20256;-73
2021/06/11 09:07:51;;;;;;;;;;;;;;;;;;5099706;28;19906;-72
2021/06/11 09:10:17;;;;;;;;;;;;;;;;;;5118276;28;19903;-72
2021/06/11 09:12:43;;;;;;;;;;;;;;;;;;5099264;28;20229;-72
2021/06/11 09:15:09;;;;;;;;;;;;;;;;;;5099539;28;19904;-71
2021/06/11 09:17:35;;;;;;;;;;;;;;;;;;5117439;28;19907;-72
2021/06/11 09:20:00;;;;;;;;;;;;;;;;;;5117454;28;19946;-72
2021/06/11 09:22:26;;;;;;;;;;;;;;;;;;5099367;28;19960;-73
2021/06/11 09:24:52;;;;;;;;;;;;;;;;;;5099285;28;19899;-72
2021/06/11 09:27:19;;;;;;;;;;;;;;;;;;5099243;28;20259;-71
2021/06/11 09:29:45;;;;;;;;;;;;;;;;;;5118157;28;19907;-70
2021/06/11 09:32:12;;;;;;;;;;;;;;;;;;5099185;28;19899;-72
2021/06/11 09:34:38;;;;;;;;;;;;;;;;;;5117170;28;19900;-72
2021/06/11 09:37:04;;;;;;;;;;;;;;;;;;5099075;28;20100;-72
2021/06/11 09:39:30;;;;;;;;;;;;;;;;;;5099027;28;20323;-72
2021/06/11 09:41:56;;;;;;;;;;;;;;;;;;5116306;28;19903;-72
2021/06/11 09:44:22;;;;;;;;;;;;;;;;;;5117093;28;19950;-73
2021/06/11 09:46:48;;;;;;;;;;;;;;;;;;5098653;28;20336;-72
2021/06/11 09:49:14;;;;;;;;;;;;;;;;;;5098866;28;19900;-71
2021/06/11 09:51:39;;;;;;;;;;;;;;;;;;5098941;28;19942;-71
2021/06/11 09:54:05;;;;;;;;;;;;;;;;;;5098533;28;20252;-70
2021/06/11 09:56:31;;;;;;;;;;;;;;;;;;5116707;28;19951;-71
2021/06/11 09:59:01;;;;;;;;;;;;;;;;;;5099492;28;19907;-72
2021/06/11 10:01:26;;;;;;;;;;;;;;;;;;5098127;28;19918;-71
2021/06/11 10:03:54;;;;;;;;;;;;;;;;;;5117202;28;19900;-70
2021/06/11 10:06:23;;;;;;;;;;;;;;;;;;5098579;28;19900;-71
2021/06/11 10:08:49;;;;;;;;;;;;;;;;;;5116488;28;20350;-72
2021/06/11 10:11:15;;;;;;;;;;;;;;;;;;5117103;28;20348;-73
2021/06/11 10:13:42;;;;;;;;;;;;;;;;;;5117063;28;20332;-72
2021/06/11 10:16:08;;;;;;;;;;;;;;;;;;5116426;28;19908;-72
2021/06/11 10:18:34;;;;;;;;;;;;;;;;;;5116656;28;19907;-72
2021/06/11 10:21:01;;;;;;;;;;;;;;;;;;5116618;28;19986;-72
2021/06/11 10:23:27;;;;;;;;;;;;;;;;;;5097964;28;20364;-74
2021/06/11 10:25:56;;;;;;;;;;;;;;;;;;5116792;28;19900;-71
2021/06/11 10:28:22;;;;;;;;;;;;;;;;;;5116428;28;19900;-71
2021/06/11 10:30:48;;;;;;;;;;;;;;;;;;5116130;28;19899;-72
2021/06/11 10:33:14;;;;;;;;;;;;;;;;;;5098082;28;19900;-71
2021/06/11 10:35:40;;;;;;;;;;;;;;;;;;5115913;28;19915;-71
2021/06/11 10:38:06;;;;;;;;;;;;;;;;;;5098018;28;19942;-72
2021/06/11 10:40:32;;;;;;;;;;;;;;;;;;5116239;28;19900;-71
2021/06/11 10:42:58;;;;;;;;;;;;;;;;;;5097580;28;19907;-72
2021/06/11 10:45:24;;;;;;;;;;;;;;;;;;5115844;28;19899;-72
2021/06/11 10:47:50;;;;;;;;;;;;;;;;;;5098281;28;19899;-72
2021/06/11 10:50:16;;;;;;;;;;;;;;;;;;5116047;28;20235;-71
2021/06/11 10:52:50;;;;;;;;;;;;;;;;;;5115213;28;19904;-71
2021/06/11 10:55:16;;;;;;;;;;;;;;;;;;5116284;28;19899;-71
2021/06/11 10:57:42;;;;;;;;;;;;;;;;;;5097219;28;19914;-71
2021/06/11 11:00:08;;;;;;;;;;;;;;;;;;5116122;28;20332;-70
2021/06/11 11:02:34;;;;;;;;;;;;;;;;;;5115774;28;19965;-71
2021/06/11 11:04:59;;;;;;;;;;;;;;;;;;5115531;28;19953;-72
2021/06/11 11:07:27;;;;;;;;;;;;;;;;;;5115973;28;19946;-72
2021/06/11 11:09:53;;;;;;;;;;;;;;;;;;5097414;28;19900;-71
2021/06/11 11:12:20;;;;;;;;;;;;;;;;;;5115575;28;20212;-72
2021/06/11 11:14:46;;;;;;;;;;;;;;;;;;5097819;28;20278;-71
2021/06/11 11:17:12;;;;;;;;;;;;;;;;;;5096868;28;19907;-71
2021/06/11 11:19:38;;;;;;;;;;;;;;;;;;5115136;28;19899;-73
2021/06/11 11:22:04;;;;;;;;;;;;;;;;;;5115437;28;20248;-72
2021/06/11 11:24:30;;;;;;;;;;;;;;;;;;5114850;28;19984;-72
2021/06/11 11:26:56;;;;;;;;;;;;;;;;;;5114983;28;19899;-72
2021/06/11 11:29:22;;;;;;;;;;;;;;;;;;5096668;28;19899;-71
2021/06/11 11:31:48;;;;;;;;;;;;;;;;;;5114967;28;19982;-72
2021/06/11 11:34:14;;;;;;;;;;;;;;;;;;5115185;28;19900;-72
2021/06/11 11:36:40;;;;;;;;;;;;;;;;;;5115073;28;19914;-71
2021/06/11 11:39:06;;;;;;;;;;;;;;;;;;5096591;28;20332;-68
2021/06/11 11:41:32;;;;;;;;;;;;;;;;;;5115066;28;19903;-71
2021/06/11 11:43:58;;;;;;;;;;;;;;;;;;5115033;28;19900;-68
2021/06/11 11:46:24;;;;;;;;;;;;;;;;;;5114751;28;20262;-70
2021/06/11 11:48:50;;;;;;;;;;;;;;;;;;5115307;28;19906;-68
2021/06/11 11:51:16;;;;;;;;;;;;;;;;;;5115039;28;19960;-69
2021/06/11 11:53:42;;;;;;;;;;;;;;;;;;5096704;28;19903;-67
2021/06/11 11:56:08;;;;;;;;;;;;;;;;;;5114834;28;19907;-72
2021/06/11 11:58:34;;;;;;;;;;;;;;;;;;5114587;28;19968;-67
2021/06/11 12:01:00;;;;;;;;;;;;;;;;;;5114223;28;20337;-68
2021/06/11 12:03:26;;;;;;;;;;;;;;;;;;5114494;28;19972;-69
2021/06/11 12:05:51;;;;;;;;;;;;;;;;;;5114142;28;19906;-68
2021/06/11 12:08:17;;;;;;;;;;;;;;;;;;5096198;28;19903;-70
2021/06/11 12:10:43;;;;;;;;;;;;;;;;;;5113474;28;19899;-68
2021/06/11 12:13:09;;;;;;;;;;;;;;;;;;5095724;28;19899;-69
2021/06/11 12:15:35;;;;;;;;;;;;;;;;;;5095641;28;20240;-68
2021/06/11 12:18:01;;;;;;;;;;;;;;;;;;5114166;28;19906;-67
2021/06/11 12:20:31;;;;;;;;;;;;;;;;;;5115194;28;20229;-68
2021/06/11 12:22:57;;;;;;;;;;;;;;;;;;5114379;28;19947;-69
2021/06/11 12:25:23;;;;;;;;;;;;;;;;;;5114873;28;19907;-68
2021/06/11 12:27:49;;;;;;;;;;;;;;;;;;5114214;28;20340;-69
2021/06/11 12:30:15;;;;;;;;;;;;;;;;;;5096343;28;20007;-68
2021/06/11 12:32:41;;;;;;;;;;;;;;;;;;5096274;28;19899;-72
2021/06/11 12:35:07;;;;;;;;;;;;;;;;;;5113758;28;19899;-71
2021/06/11 12:37:33;;;;;;;;;;;;;;;;;;5114112;28;19908;-71
2021/06/11 12:40:01;;;;;;;;;;;;;;;;;;5096693;28;19903;-71
2021/06/11 12:42:31;;;;;;;;;;;;;;;;;;5114299;28;19990;-71
2021/06/11 12:44:57;;;;;;;;;;;;;;;;;;5097034;28;19900;-70
2021/06/11 12:47:23;;;;;;;;;;;;;;;;;;5114651;28;20312;-71
2021/06/11 12:49:49;;;;;;;;;;;;;;;;;;5095817;28;19903;-69
2021/06/11 12:52:15;;;;;;;;;;;;;;;;;;5096075;28;19900;-71
2021/06/11 12:54:41;;;;;;;;;;;;;;;;;;5114345;28;19961;-74
2021/06/11 12:57:07;;;;;;;;;;;;;;;;;;5113988;28;19957;-69
2021/06/11 12:59:34;;;;;;;;;;;;;;;;;;5114207;28;19906;-70
2021/06/11 13:02:00;;;;;;;;;;;;;;;;;;5114647;28;19912;-72
2021/06/11 13:04:26;;;;;;;;;;;;;;;;;;5095738;28;19990;-72
2021/06/11 13:06:52;;;;;;;;;;;;;;;;;;5095885;28;20380;-74
2021/06/11 13:09:18;;;;;;;;;;;;;;;;;;5114210;28;19952;-74
2021/06/11 13:11:44;;;;;;;;;;;;;;;;;;5114215;28;19907;-71
2021/06/11 13:14:10;;;;;;;;;;;;;;;;;;5095962;28;19900;-72
2021/06/11 13:16:36;;;;;;;;;;;;;;;;;;5116781;28;20457;-71
2021/06/11 13:19:02;;;;;;;;;;;;;;;;;;5099730;28;19899;-72
2021/06/11 13:21:30;;;;;;;;;;;;;;;;;;5117771;28;19984;-76
2021/06/11 13:23:57;;;;;;;;;;;;;;;;;;5099101;28;20346;-72
2021/06/11 13:26:24;;;;;;;;;;;;;;;;;;5118029;28;20333;-72
2021/06/11 13:28:50;;;;;;;;;;;;;;;;;;5099342;28;19900;-72
2021/06/11 13:31:16;;;;;;;;;;;;;;;;;;5117587;28;19907;-72
2021/06/11 13:33:42;;;;;;;;;;;;;;;;;;5099200;28;19903;-71
2021/06/11 13:36:07;;;;;;;;;;;;;;;;;;5099094;28;19912;-73
2021/06/11 13:38:34;;;;;;;;;;;;;;;;;;5116872;28;19900;-71
2021/06/11 13:41:00;;;;;;;;;;;;;;;;;;5098788;28;19990;-73
2021/06/11 13:43:26;;;;;;;;;;;;;;;;;;5099071;28;20301;-72
2021/06/11 13:45:52;;;;;;;;;;;;;;;;;;5116964;28;19907;-70
2021/06/11 13:48:18;;;;;;;;;;;;;;;;;;5098972;28;19947;-75
2021/06/11 13:50:44;;;;;;;;;;;;;;;;;;5117235;28;20385;-71
2021/06/11 13:53:12;;;;;;;;;;;;;;;;;;5116823;28;19907;-71
2021/06/11 13:55:38;;;;;;;;;;;;;;;;;;5098725;28;19900;-72
2021/06/11 13:58:04;;;;;;;;;;;;;;;;;;5098718;28;19900;-72
2021/06/11 14:00:30;;;;;;;;;;;;;;;;;;5098308;28;19917;-71
2021/06/11 14:02:56;;;;;;;;;;;;;;;;;;5117335;28;19900;-72
2021/06/11 14:05:22;;;;;;;;;;;;;;;;;;5116648;28;19952;-72
2021/06/11 14:07:48;;;;;;;;;;;;;;;;;;5116545;28;19954;-71
2021/06/11 14:10:14;;;;;;;;;;;;;;;;;;5098574;28;19900;-74
2021/06/11 14:12:40;;;;;;;;;;;;;;;;;;5116151;28;19899;-72
2021/06/11 14:15:06;;;;;;;;;;;;;;;;;;5117064;28;20003;-72
2021/06/11 14:17:32;;;;;;;;;;;;;;;;;;5098305;28;19911;-72
2021/06/11 14:19:58;;;;;;;;;;;;;;;;;;5098096;28;19906;-73
2021/06/11 14:22:24;;;;;;;;;;;;;;;;;;5116652;28;19904;-75
2021/06/11 14:24:50;;;;;;;;;;;;;;;;;;5098330;28;19907;-72
2021/06/11 14:27:17;;;;;;;;;;;;;;;;;;5115790;28;19942;-74
2021/06/11 14:29:43;;;;;;;;;;;;;;;;;;5098106;28;19907;-70
2021/06/11 14:32:09;;;;;;;;;;;;;;;;;;5116449;28;19904;-72
2021/06/11 14:34:35;;;;;;;;;;;;;;;;;;5115837;28;19949;-71
2021/06/11 14:37:01;;;;;;;;;;;;;;;;;;5116244;28;19977;-73
2021/06/11 14:39:27;;;;;;;;;;;;;;;;;;5098041;28;19907;-72
2021/06/11 14:41:53;;;;;;;;;;;;;;;;;;5117230;28;20416;-75
2021/06/11 14:44:19;;;;;;;;;;;;;;;;;;5115826;28;19903;-73
2021/06/11 14:46:45;;;;;;;;;;;;;;;;;;5116194;28;19906;-76
2021/06/11 14:49:11;;;;;;;;;;;;;;;;;;5097574;28;19900;-74
2021/06/11 14:51:37;;;;;;;;;;;;;;;;;;5116097;28;19952;-74
2021/06/11 14:54:04;;;;;;;;;;;;;;;;;;5097728;28;20240;-74
2021/06/11 14:56:37;;;;;;;;;;;;;;;;;;5097294;28;20308;-74
2021/06/11 14:59:03;;;;;;;;;;;;;;;;;;5097958;28;20332;-74
2021/06/11 15:01:29;;;;;;;;;;;;;;;;;;5116318;28;19916;-74
2021/06/11 15:03:55;;;;;;;;;;;;;;;;;;5115533;28;19904;-74
2021/06/11 15:06:21;;;;;;;;;;;;;;;;;;5116016;28;19900;-73
2021/06/11 15:08:47;;;;;;;;;;;;;;;;;;5097110;28;20358;-74
2021/06/11 15:11:13;;;;;;;;;;;;;;;;;;5115363;28;19923;-72
2021/06/11 15:13:39;;;;;;;;;;;;;;;;;;5097617;28;20002;-72
2021/06/11 15:16:04;;;;;;;;;;;;;;;;;;5096918;28;19908;-73
2021/06/11 15:18:30;;;;;;;;;;;;;;;;;;5097646;28;19900;-75
2021/06/11 15:20:57;;;;;;;;;;;;;;;;;;5115490;28;20256;-74
2021/06/11 15:23:24;;;;;;;;;;;;;;;;;;5096909;28;19900;-73
2021/06/11 15:25:50;;;;;;;;;;;;;;;;;;5097081;28;19910;-73
2021/06/11 15:28:16;;;;;;;;;;;;;;;;;;5097398;28;19982;-74
2021/06/11 15:30:42;;;;;;;;;;;;;;;;;;5096732;28;19900;-73
2021/06/11 15:33:08;;;;;;;;;;;;;;;;;;5097035;28;20324;-68
2021/06/11 15:35:34;;;;;;;;;;;;;;;;;;5115193;28;19900;-73
2021/06/11 15:38:00;;;;;;;;;;;;;;;;;;5114184;28;20053;-74
2021/06/11 15:40:26;;;;;;;;;;;;;;;;;;5097610;28;20356;-73
2021/06/11 15:42:52;;;;;;;;;;;;;;;;;;5096507;28;19953;-73
2021/06/11 15:45:18;;;;;;;;;;;;;;;;;;5114479;28;19922;-73
2021/06/11 15:47:44;;;;;;;;;;;;;;;;;;5096758;28;19900;-73
2021/06/11 15:50:10;;;;;;;;;;;;;;;;;;5114971;28;19899;-73
2021/06/11 15:52:36;;;;;;;;;;;;;;;;;;5114757;28;19953;-73
2021/06/11 15:55:02;;;;;;;;;;;;;;;;;;5114927;28;19907;-73
2021/06/11 15:57:28;;;;;;;;;;;;;;;;;;5114558;28;19907;-73
2021/06/11 15:59:54;;;;;;;;;;;;;;;;;;5114176;28;19899;-73
2021/06/11 16:02:20;;;;;;;;;;;;;;;;;;5114906;28;19911;-71
2021/06/11 16:04:46;;;;;;;;;;;;;;;;;;5114233;28;19942;-70
2021/06/11 16:07:12;;;;;;;;;;;;;;;;;;5114768;28;19945;-71
2021/06/11 16:09:38;;;;;;;;;;;;;;;;;;5097421;28;19899;-71
2021/06/11 16:12:04;;;;;;;;;;;;;;;;;;5114424;28;20328;-72
2021/06/11 16:14:30;;;;;;;;;;;;;;;;;;5096604;28;19900;-71
2021/06/11 16:16:56;;;;;;;;;;;;;;;;;;5114947;28;20342;-70
2021/06/11 16:19:22;;;;;;;;;;;;;;;;;;5096117;28;19900;-71
2021/06/11 16:21:47;;;;;;;;;;;;;;;;;;5096356;28;19998;-72
2021/06/11 16:24:13;;;;;;;;;;;;;;;;;;5114332;28;19986;-72
2021/06/11 16:26:40;;;;;;;;;;;;;;;;;;5114382;28;19903;-72
2021/06/11 16:29:06;;;;;;;;;;;;;;;;;;5114889;28;19998;-72
2021/06/11 16:31:32;;;;;;;;;;;;;;;;;;5096275;28;19935;-72
2021/06/11 16:33:58;;;;;;;;;;;;;;;;;;5113993;28;19900;-73
2021/06/11 16:36:24;;;;;;;;;;;;;;;;;;5115040;28;19907;-72
2021/06/11 16:38:50;;;;;;;;;;;;;;;;;;5114295;28;20347;-70